Hill Air Force Base
KHIF : now visible

Airfield :











YOU CAN JOIN US ON...

 
LOGIN :

Register | Disclaimer

   EN    FR    IT 

 









Legend :    VFR   Marginal VFR   IFR   Intensive IFR   Very Intensive IFR
Visi :
Ceiling :
>= 8 km
>= 3000ft
5 to 8 km
1000 to 3000 ft
1500m to 5 km
500 to 1000 ft
800 to 1500m
200 to 500 ft
< 800m
< 200 ft
Symbols :   Thunderstorms  Fog  Heavy snow  Heavy precipitations  Wind > 20 kt






- Airport Elevation : 4789 ft


KHIF - Hill Air Force Base

CURRENT METAR :
  • 171558Z 34004KT 3/4SM R14/P6000FT -SN BR BKN004 BKN010 M02/M02 A2997 RMK AO2A SLP155 P0002 T10201021

EXPIRED METARs :
  • 171542Z 01003KT 5SM -SN BKN004 OVC009 M02/M02 A2995 RMK AO2A BKN V OVC SLP148
  • 171533Z 35003KT 1 1/2SM -SN BR OVC003 M02/M02 A2995 RMK AO2A SLP148
  • 171458Z 35010KT 7/8SM R14/P6000FT -SN BR OVC002 M02/M02 A2992 RMK AO2A SLP140 P0002 60004 T10161017 53046
  • 171447Z 34012KT 3/4SM R14/P6000FT -SN BR OVC002 M01/M01 A2991 RMK PRESRR SLP134
  • 171408Z 34012KT 1 1/4SM -SN BR OVC002 M01/M01 A2987 RMK AO2A VIS 1/2V1 1/4 PRESRR SLP116
  • 171358Z 34015G22KT 1/2SM R14/2600V4000FT SN FZFG OVC002 M01/M01 A2985 RMK AO2A SLP106 P0002 T10091010
  • 171335Z 31018G23KT 1/2SM R14/2600V3500FT SN FZFG OVC003 M01/M01 A2982 RMK AO2A VIS 1/2V1 SLP099
  • 171326Z 29013KT 1/2SM R14/3500VP6000FT -SN BR OVC003 M01/M01 A2981 RMK AO2A PRESRR SLP095
  • 171313Z 29015KT 1SM R14/6000VP6000FT -SN BR OVC003 M01/M01 A2979 RMK AO2A SLP088

TAF AMD TAF KHIF
Valid from the 17 at 15:00 until the 18 at 20:00 UTC


171509Z 1715/1820 33012G18KT 1200 -SN BR BKN002 OVC030 630059 QNH2993INS
TEMPO 1715/1716 29015G25KT 0600 SN FZFG OVC002 520009 630029
BECMG 1715/1716 29010G15KT 4000 -SN BKN010 OVC030 630307 QNH2992INS
TEMPO 1716/1717 2400 -SN BKN007 630079
BECMG 1717/1718 25009KT 9999 VCSH BKN020 BKN080 QNH3007INS
BECMG 1802/1803 12009KT 9999 NSW SCT050 BKN100 QNH3029INS TX03/1722Z TNM02/1715Z



MET'MAP, your aeronautical weather chart ! - Copyright ORBIFLY December 2007 - Disclaimer

ORBIFLY MET'MAP TEAM :

Programming & Development : Alexandra Zaïnal
Concept & original design : Baudouin d'Aumeries
Assistance for programming : Marc-Olivier Méhu
Technical & hardware support : Manuel Goepfert

Contact : metmap@orbifly.com




SOURCES & CREDITS :

   NOAA       Earth
Advisory